createdAt,value
2018-08-22T00:01:15.204Z,21.00
2018-08-22T00:03:43.588Z,21.00
2018-08-22T00:06:11.996Z,21.00
2018-08-22T00:08:44.680Z,20.90
2018-08-22T00:11:13.893Z,20.90
2018-08-22T00:13:43.317Z,20.90
2018-08-22T00:16:11.728Z,20.80
2018-08-22T00:18:40.110Z,20.80
2018-08-22T00:21:08.530Z,20.70
2018-08-22T00:23:36.934Z,20.70
2018-08-22T00:26:05.680Z,20.70
2018-08-22T00:28:34.315Z,20.60
2018-08-22T00:31:02.834Z,20.60
2018-08-22T00:33:31.311Z,20.60
2018-08-22T00:35:59.754Z,20.50
2018-08-22T00:38:28.152Z,20.50
2018-08-22T00:40:56.632Z,20.50
2018-08-22T00:43:25.048Z,20.50
2018-08-22T00:45:53.481Z,20.50
2018-08-22T00:48:21.921Z,20.50
2018-08-22T00:50:50.354Z,20.40
2018-08-22T00:53:18.760Z,20.30
2018-08-22T00:55:53.849Z,20.30
2018-08-22T00:58:22.364Z,20.30
2018-08-22T01:00:50.838Z,20.20
2018-08-22T01:03:19.245Z,20.20
2018-08-22T01:05:47.741Z,20.00
2018-08-22T01:08:16.156Z,20.00
2018-08-22T01:10:44.537Z,20.00
2018-08-22T01:13:12.928Z,19.90
2018-08-22T01:15:41.379Z,19.80
2018-08-22T01:18:10.010Z,19.80
2018-08-22T01:20:38.416Z,19.80
2018-08-22T01:23:06.946Z,19.70
2018-08-22T01:25:35.411Z,19.70
2018-08-22T01:28:04.049Z,19.70
2018-08-22T01:30:32.737Z,19.60
2018-08-22T01:33:01.198Z,19.60
2018-08-22T01:35:29.790Z,19.70
2018-08-22T01:37:58.222Z,19.70
2018-08-22T01:40:26.590Z,19.60
2018-08-22T01:42:54.998Z,19.50
2018-08-22T01:45:23.387Z,19.40
2018-08-22T01:47:51.799Z,19.40
2018-08-22T01:50:20.229Z,19.40
2018-08-22T01:52:48.608Z,19.40
2018-08-22T01:55:17.077Z,19.30
2018-08-22T01:57:45.486Z,19.30
2018-08-22T02:00:13.881Z,19.30
2018-08-22T02:02:42.331Z,19.30
2018-08-22T02:05:10.732Z,19.20
2018-08-22T02:07:39.144Z,19.20
2018-08-22T02:10:07.605Z,19.10
2018-08-22T02:12:36.139Z,19.10
2018-08-22T02:15:05.082Z,19.10
2018-08-22T02:17:33.560Z,19.00
2018-08-22T02:20:08.766Z,19.00
2018-08-22T02:22:37.272Z,19.00
2018-08-22T02:25:05.782Z,18.90
2018-08-22T02:27:34.140Z,19.00
2018-08-22T02:30:02.543Z,18.90
2018-08-22T02:32:30.952Z,18.90
2018-08-22T02:34:59.332Z,18.90
2018-08-22T02:37:27.776Z,18.90
2018-08-22T02:39:56.136Z,18.90
2018-08-22T02:42:24.521Z,18.80
2018-08-22T02:44:52.936Z,18.90
2018-08-22T02:47:21.330Z,18.80
2018-08-22T02:49:49.724Z,18.70
2018-08-22T02:52:18.200Z,18.70
2018-08-22T02:54:46.730Z,18.70
2018-08-22T02:57:15.238Z,18.70
2018-08-22T02:59:43.650Z,18.70
2018-08-22T03:02:12.121Z,18.70
2018-08-22T03:04:40.511Z,18.60
2018-08-22T03:07:09.079Z,18.60
2018-08-22T03:09:37.493Z,18.50
2018-08-22T03:12:05.934Z,18.50
2018-08-22T03:14:34.449Z,18.50
2018-08-22T03:17:02.906Z,18.50
2018-08-22T03:19:31.289Z,18.40
2018-08-22T03:21:59.649Z,18.30
2018-08-22T03:24:28.132Z,18.30
2018-08-22T03:26:56.565Z,18.30
2018-08-22T03:29:24.963Z,18.20
2018-08-22T03:31:53.547Z,18.20
2018-08-22T03:34:21.978Z,18.10
2018-08-22T03:36:50.638Z,18.10
2018-08-22T03:39:19.036Z,18.10
2018-08-22T03:41:47.432Z,18.10
2018-08-22T03:44:15.829Z,18.10
2018-08-22T03:46:44.256Z,18.10
2018-08-22T03:49:12.675Z,18.10
2018-08-22T03:51:41.081Z,18.10
2018-08-22T03:54:09.518Z,18.00
2018-08-22T03:56:38.005Z,18.10
2018-08-22T03:59:06.503Z,18.00
2018-08-22T04:01:34.961Z,18.00
2018-08-22T04:04:03.346Z,17.90
2018-08-22T04:06:31.719Z,17.90
2018-08-22T04:09:00.195Z,17.90
2018-08-22T04:11:28.741Z,17.90
2018-08-22T04:13:57.216Z,17.90
2018-08-22T04:16:25.718Z,17.90
2018-08-22T04:18:54.236Z,17.90
2018-08-22T04:21:22.615Z,17.80
2018-08-22T04:23:51.008Z,17.90
2018-08-22T04:26:19.399Z,17.90
2018-08-22T04:28:47.776Z,17.90
2018-08-22T04:31:16.166Z,17.80
2018-08-22T04:33:44.702Z,17.80
2018-08-22T04:36:13.088Z,17.80
2018-08-22T04:38:41.488Z,17.80
2018-08-22T04:41:09.980Z,17.80
2018-08-22T04:43:38.620Z,17.80
2018-08-22T04:46:07.116Z,17.90
2018-08-22T04:48:35.535Z,17.90
2018-08-22T04:51:04.008Z,17.90
2018-08-22T04:53:32.598Z,18.00
2018-08-22T04:56:01.078Z,18.00
2018-08-22T04:58:29.434Z,18.00
2018-08-22T05:00:57.861Z,18.00
2018-08-22T05:03:26.226Z,18.10
2018-08-22T05:05:54.696Z,18.20
2018-08-22T05:08:23.053Z,18.30
2018-08-22T05:10:51.456Z,18.30
2018-08-22T05:13:19.830Z,18.40
2018-08-22T05:15:48.254Z,18.20
2018-08-22T05:18:16.708Z,18.40
2018-08-22T05:20:45.272Z,18.50
2018-08-22T05:23:13.638Z,18.50
2018-08-22T05:25:42.084Z,18.70
2018-08-22T05:28:17.077Z,19.00
2018-08-22T05:30:45.660Z,19.20
2018-08-22T05:33:14.076Z,19.20
2018-08-22T05:35:42.518Z,19.30
2018-08-22T05:38:11.016Z,19.20
2018-08-22T05:40:39.754Z,19.40
2018-08-22T05:43:08.124Z,19.60
2018-08-22T05:45:36.691Z,19.80
2018-08-22T05:48:05.525Z,20.00
2018-08-22T05:50:34.096Z,20.10
2018-08-22T05:53:02.750Z,20.20
2018-08-22T05:55:31.308Z,20.50
2018-08-22T06:00:33.445Z,20.60
2018-08-22T06:03:01.891Z,20.90
2018-08-22T06:05:30.339Z,21.20
2018-08-22T06:07:58.820Z,21.90
2018-08-22T06:10:27.243Z,22.40
2018-08-22T06:12:55.669Z,22.10
2018-08-22T06:15:24.045Z,22.60
2018-08-22T06:17:52.533Z,23.00
2018-08-22T06:20:20.967Z,23.70
2018-08-22T06:22:49.456Z,24.00
2018-08-22T06:25:17.897Z,24.00
2018-08-22T06:27:46.403Z,24.50
2018-08-22T06:30:14.861Z,25.10
2018-08-22T06:32:43.248Z,25.50
2018-08-22T06:35:12.838Z,25.90
2018-08-22T06:37:41.357Z,26.10
2018-08-22T06:40:09.714Z,26.40
2018-08-22T06:42:38.144Z,26.80
2018-08-22T06:45:08.097Z,27.00
2018-08-22T06:47:36.499Z,27.20
2018-08-22T06:50:05.194Z,27.30
2018-08-22T06:52:33.563Z,27.20
2018-08-22T06:55:02.038Z,27.50
2018-08-22T06:57:30.396Z,27.90
2018-08-22T06:59:58.769Z,28.30
2018-08-22T07:02:32.523Z,27.90
2018-08-22T07:05:01.029Z,27.80
2018-08-22T07:07:29.860Z,28.00
2018-08-22T07:09:58.388Z,28.60
2018-08-22T07:12:26.833Z,27.30
2018-08-22T07:14:55.328Z,27.60
2018-08-22T07:17:23.828Z,28.50
2018-08-22T07:19:52.246Z,28.40
2018-08-22T07:22:20.634Z,28.90
2018-08-22T07:24:49.079Z,28.70
2018-08-22T07:27:17.532Z,29.60
2018-08-22T07:29:45.931Z,29.90
2018-08-22T07:32:14.339Z,29.90
2018-08-22T07:34:42.787Z,29.70
2018-08-22T07:37:11.170Z,29.90
2018-08-22T07:39:39.676Z,29.60
2018-08-22T07:42:08.084Z,30.20
2018-08-22T07:44:36.533Z,30.40
2018-08-22T07:47:05.142Z,29.80
2018-08-22T07:49:33.609Z,30.40
2018-08-22T07:52:02.061Z,30.70
2018-08-22T07:54:34.793Z,31.20
2018-08-22T07:57:03.209Z,31.20
2018-08-22T07:59:31.645Z,31.60
2018-08-22T08:02:00.189Z,32.10
2018-08-22T08:04:28.655Z,32.50
2018-08-22T08:06:57.053Z,32.00
2018-08-22T08:09:25.616Z,32.30
2018-08-22T08:11:54.146Z,31.70
2018-08-22T08:14:22.569Z,30.00
2018-08-22T08:16:51.021Z,31.30
2018-08-22T08:19:19.487Z,32.50
2018-08-22T08:21:47.917Z,32.60
2018-08-22T08:24:16.342Z,33.10
2018-08-22T08:26:44.722Z,33.50
2018-08-22T08:29:13.253Z,33.40
2018-08-22T08:31:41.714Z,33.10
2018-08-22T08:34:10.169Z,32.00
2018-08-22T08:36:38.680Z,32.30
2018-08-22T08:39:08.869Z,32.20
2018-08-22T08:41:37.507Z,33.10
2018-08-22T08:44:06.143Z,32.50
2018-08-22T08:46:34.595Z,33.20
2018-08-22T08:49:03.211Z,33.10
2018-08-22T08:51:31.675Z,33.90
2018-08-22T08:54:00.068Z,33.40
2018-08-22T08:56:28.594Z,33.70
2018-08-22T08:58:57.044Z,34.10
2018-08-22T09:01:25.444Z,33.20
2018-08-22T09:03:54.014Z,33.80
2018-08-22T09:06:22.554Z,34.50
2018-08-22T09:08:50.984Z,34.60
2018-08-22T09:11:19.353Z,35.40
2018-08-22T09:13:53.005Z,35.30
2018-08-22T09:16:22.239Z,34.70
2018-08-22T09:18:50.803Z,34.20
2018-08-22T09:21:19.246Z,34.40
2018-08-22T09:23:47.820Z,34.40
2018-08-22T09:26:16.323Z,34.90
2018-08-22T09:28:44.778Z,35.20
2018-08-22T09:31:13.205Z,36.00
2018-08-22T09:33:41.865Z,36.20
2018-08-22T09:36:10.276Z,35.50
2018-08-22T09:38:38.677Z,35.10
2018-08-22T09:41:07.077Z,35.30
2018-08-22T09:43:35.531Z,35.50
2018-08-22T09:46:04.010Z,36.70
2018-08-22T09:48:32.578Z,37.50
2018-08-22T09:51:01.047Z,38.80
2018-08-22T09:53:29.440Z,38.50
2018-08-22T09:55:57.868Z,37.40
2018-08-22T09:58:26.502Z,36.20
2018-08-22T10:01:00.250Z,36.00
2018-08-22T10:03:33.694Z,36.90
2018-08-22T10:06:02.126Z,37.50
2018-08-22T10:08:30.556Z,38.30
2018-08-22T10:10:58.935Z,38.40
2018-08-22T10:13:27.353Z,37.40
2018-08-22T10:15:55.823Z,36.00
2018-08-22T10:18:24.275Z,35.10
2018-08-22T10:20:52.707Z,35.80
2018-08-22T10:23:22.416Z,37.20
2018-08-22T10:25:50.855Z,37.20
2018-08-22T10:28:19.261Z,36.00
2018-08-22T10:30:47.706Z,37.40
2018-08-22T10:33:16.241Z,37.50
2018-08-22T10:35:44.827Z,38.30
2018-08-22T10:38:13.304Z,37.10
2018-08-22T10:40:41.721Z,35.70
2018-08-22T10:43:10.149Z,36.70
2018-08-22T10:45:38.590Z,36.70
2018-08-22T10:48:07.143Z,37.50
2018-08-22T10:50:35.525Z,38.10
2018-08-22T10:53:03.927Z,37.70
2018-08-22T10:55:32.356Z,38.60
2018-08-22T10:58:00.845Z,38.60
2018-08-22T11:00:29.719Z,38.70
2018-08-22T11:02:58.173Z,38.80
2018-08-22T11:05:26.672Z,39.30
2018-08-22T11:07:55.108Z,39.60
2018-08-22T11:10:23.590Z,40.60
2018-08-22T11:12:52.026Z,41.30
2018-08-22T11:15:20.557Z,42.20
2018-08-22T11:17:48.945Z,42.30
2018-08-22T11:20:17.412Z,42.60
2018-08-22T11:22:57.179Z,40.70
2018-08-22T11:25:36.865Z,38.60
2018-08-22T11:28:16.656Z,38.90
2018-08-22T11:30:56.577Z,38.80
2018-08-22T11:33:36.455Z,39.60
2018-08-22T11:36:03.867Z,39.80
2018-08-22T11:38:32.269Z,37.50
2018-08-22T11:41:00.677Z,38.60
2018-08-22T11:43:29.107Z,38.80
2018-08-22T11:45:57.496Z,37.80
2018-08-22T11:48:25.923Z,37.70
2018-08-22T11:50:54.357Z,37.40
2018-08-22T11:53:22.899Z,36.50
2018-08-22T11:55:51.346Z,36.10
2018-08-22T11:58:19.780Z,36.30
2018-08-22T12:00:48.202Z,36.60
2018-08-22T12:03:16.654Z,37.70
2018-08-22T12:05:45.079Z,38.20
2018-08-22T12:08:13.502Z,36.70
2018-08-22T12:10:42.023Z,35.60
2018-08-22T12:13:10.502Z,37.40
2018-08-22T12:15:40.162Z,38.20
2018-08-22T12:18:08.649Z,39.40
2018-08-22T12:20:37.085Z,37.70
2018-08-22T12:23:05.605Z,36.40
2018-08-22T12:25:34.011Z,36.90
2018-08-22T12:28:02.611Z,36.90
2018-08-22T12:30:31.172Z,38.90
2018-08-22T12:32:59.678Z,40.00
2018-08-22T12:35:28.109Z,41.70
2018-08-22T12:37:56.611Z,42.20
2018-08-22T12:40:25.138Z,41.00
2018-08-22T12:42:53.626Z,40.10
2018-08-22T12:45:22.123Z,41.40
2018-08-22T12:47:50.569Z,41.80
2018-08-22T12:50:19.078Z,42.00
2018-08-22T12:52:47.492Z,40.50
2018-08-22T12:55:15.893Z,40.20
2018-08-22T12:57:44.341Z,40.50
2018-08-22T13:00:12.799Z,40.40
2018-08-22T13:02:41.267Z,38.80
2018-08-22T13:05:09.730Z,38.60
2018-08-22T13:07:38.239Z,37.30
2018-08-22T13:10:06.921Z,37.60
2018-08-22T13:12:35.429Z,38.40
2018-08-22T13:15:04.234Z,39.70
2018-08-22T13:17:32.792Z,39.80
2018-08-22T13:20:01.372Z,39.50
2018-08-22T13:22:29.917Z,39.20
2018-08-22T13:24:58.415Z,38.40
2018-08-22T13:27:26.917Z,36.80
2018-08-22T13:29:55.416Z,37.30
2018-08-22T13:32:23.859Z,37.10
2018-08-22T13:34:52.298Z,37.50
2018-08-22T13:37:20.820Z,34.70
2018-08-22T13:39:49.366Z,33.80
2018-08-22T13:42:17.841Z,35.70
2018-08-22T13:44:46.220Z,35.30
2018-08-22T13:47:14.672Z,34.50
2018-08-22T13:49:43.077Z,35.10
2018-08-22T13:52:11.603Z,35.80
2018-08-22T13:54:40.013Z,36.80
2018-08-22T13:57:08.495Z,36.40
2018-08-22T13:59:37.076Z,38.00
2018-08-22T14:02:05.559Z,37.80
2018-08-22T14:04:34.732Z,37.80
2018-08-22T14:07:03.332Z,35.70
2018-08-22T14:09:31.751Z,35.00
2018-08-22T14:12:00.449Z,34.80
2018-08-22T14:14:28.880Z,34.50
2018-08-22T14:16:57.290Z,34.40
2018-08-22T14:19:25.787Z,34.70
2018-08-22T14:21:54.297Z,34.50
2018-08-22T14:24:22.680Z,34.50
2018-08-22T14:26:51.111Z,35.00
2018-08-22T14:29:19.623Z,33.80
2018-08-22T14:31:54.456Z,33.60
2018-08-22T14:34:22.985Z,32.50
2018-08-22T14:36:51.793Z,31.90
2018-08-22T14:39:20.308Z,32.20
2018-08-22T14:41:48.717Z,31.90
2018-08-22T14:44:17.211Z,32.30
2018-08-22T14:46:45.671Z,32.10
2018-08-22T14:49:14.183Z,32.10
2018-08-22T14:51:42.618Z,32.00
2018-08-22T14:54:11.079Z,32.30
2018-08-22T14:56:39.623Z,32.40
2018-08-22T14:59:08.176Z,32.50
2018-08-22T15:01:36.774Z,32.60
2018-08-22T15:04:05.267Z,32.90
2018-08-22T15:06:33.729Z,32.90
2018-08-22T15:09:07.545Z,33.10
2018-08-22T15:11:36.952Z,32.80
2018-08-22T15:14:05.981Z,32.20
2018-08-22T15:16:34.439Z,32.40
2018-08-22T15:19:03.128Z,32.60
2018-08-22T15:21:31.688Z,32.10
2018-08-22T15:24:00.162Z,32.00
2018-08-22T15:26:28.637Z,31.70
2018-08-22T15:28:57.134Z,31.50
2018-08-22T15:31:25.793Z,31.40
2018-08-22T15:33:54.239Z,31.70
2018-08-22T15:36:22.737Z,31.80
2018-08-22T15:38:51.136Z,32.00
2018-08-22T15:41:19.675Z,31.80
2018-08-22T15:43:48.049Z,31.70
2018-08-22T15:46:16.505Z,31.90
2018-08-22T15:48:44.953Z,31.70
2018-08-22T15:51:13.419Z,31.80
2018-08-22T15:53:41.954Z,31.90
2018-08-22T15:56:10.512Z,31.90
2018-08-22T15:58:39.023Z,31.50
2018-08-22T16:01:07.517Z,31.40
2018-08-22T16:03:35.887Z,31.60
2018-08-22T16:06:04.324Z,31.70
2018-08-22T16:08:32.762Z,31.70
2018-08-22T16:11:05.430Z,31.80
2018-08-22T16:13:33.886Z,31.50
2018-08-22T16:16:02.887Z,31.50
2018-08-22T16:18:33.685Z,31.50
2018-08-22T16:21:02.859Z,31.50
2018-08-22T16:23:33.407Z,31.50
2018-08-22T16:26:02.834Z,31.30
2018-08-22T16:28:42.811Z,31.50
2018-08-22T16:31:11.396Z,31.50
2018-08-22T16:33:39.809Z,31.70
2018-08-22T16:36:11.218Z,31.70
2018-08-22T16:38:39.703Z,31.80
2018-08-22T16:41:08.134Z,31.30
2018-08-22T16:43:43.674Z,31.50
2018-08-22T16:46:14.065Z,31.50
2018-08-22T16:48:43.935Z,31.50
2018-08-22T16:51:12.338Z,31.50
2018-08-22T16:53:40.872Z,31.30
2018-08-22T16:56:09.267Z,31.20
2018-08-22T16:58:37.804Z,31.30
2018-08-22T17:01:06.227Z,31.40
2018-08-22T17:03:34.726Z,31.20
2018-08-22T17:06:12.351Z,31.20
2018-08-22T17:08:40.859Z,31.20
2018-08-22T17:11:11.131Z,31.10
2018-08-22T17:13:44.206Z,31.10
2018-08-22T17:16:12.666Z,30.90
2018-08-22T17:18:41.179Z,30.90
2018-08-22T17:21:10.018Z,30.80
2018-08-22T17:23:38.646Z,30.70
2018-08-22T17:26:11.086Z,30.60
2018-08-22T17:28:41.287Z,30.60
2018-08-22T17:31:10.255Z,30.50
2018-08-22T17:33:41.031Z,30.50
2018-08-22T17:36:10.429Z,30.50
2018-08-22T17:38:41.325Z,30.40
2018-08-22T17:41:09.734Z,30.40
2018-08-22T17:44:10.145Z,30.40
2018-08-22T17:46:40.870Z,30.30
2018-08-22T17:49:09.400Z,30.30
2018-08-22T17:52:01.682Z,30.10
2018-08-22T17:54:30.083Z,30.00
2018-08-22T17:57:10.944Z,29.80
2018-08-22T17:59:40.098Z,29.70
2018-08-22T18:02:08.598Z,29.50
2018-08-22T18:04:48.239Z,29.40
2018-08-22T18:07:17.354Z,29.20
2018-08-22T18:09:46.783Z,29.10
2018-08-22T18:12:15.464Z,28.90
2018-08-22T18:14:44.091Z,28.80
2018-08-22T18:17:12.584Z,28.70
2018-08-22T18:19:41.090Z,28.60
2018-08-22T18:22:10.519Z,28.50
2018-08-22T18:24:58.142Z,28.30
2018-08-22T18:27:27.162Z,28.20
2018-08-22T18:29:55.541Z,28.10
2018-08-22T18:32:24.054Z,28.00
2018-08-22T18:35:04.723Z,28.00
2018-08-22T18:37:33.358Z,27.80
2018-08-22T18:40:24.600Z,27.70
2018-08-22T18:42:57.234Z,27.60
2018-08-22T18:45:26.356Z,27.60
2018-08-22T18:47:54.878Z,27.40
2018-08-22T18:50:23.376Z,27.40
2018-08-22T18:52:53.926Z,27.30
2018-08-22T18:55:25.511Z,27.20
2018-08-22T18:57:54.534Z,27.10
2018-08-22T19:00:23.118Z,27.10
2018-08-22T19:02:56.293Z,27.00
2018-08-22T19:05:29.313Z,26.90
2018-08-22T19:08:15.817Z,26.90
2018-08-22T19:10:46.512Z,26.80
2018-08-22T19:13:16.034Z,26.70
2018-08-22T19:15:55.239Z,26.60
2018-08-22T19:18:23.862Z,26.60
2018-08-22T19:21:00.908Z,26.50
2018-08-22T19:23:29.600Z,26.40
2018-08-22T19:25:58.784Z,26.40
2018-08-22T19:28:27.283Z,26.30
2018-08-22T19:30:55.754Z,26.20
2018-08-22T19:33:25.368Z,26.10
2018-08-22T19:35:53.964Z,26.10
2018-08-22T19:38:23.709Z,25.90
2018-08-22T19:40:52.271Z,25.90
2018-08-22T19:43:20.736Z,25.90
2018-08-22T19:45:49.218Z,25.90
2018-08-22T19:48:22.053Z,25.90
2018-08-22T19:50:50.648Z,25.80
2018-08-22T19:53:19.115Z,25.80
2018-08-22T19:55:47.657Z,25.70
2018-08-22T19:58:20.347Z,25.70
2018-08-22T20:00:49.092Z,25.60
2018-08-22T20:03:21.861Z,25.40
2018-08-22T20:05:52.635Z,25.30
2018-08-22T20:08:26.328Z,25.20
2018-08-22T20:10:54.853Z,25.20
2018-08-22T20:13:23.489Z,25.10
2018-08-22T20:15:51.970Z,25.00
2018-08-22T20:18:20.414Z,25.00
2018-08-22T20:20:48.876Z,24.90
2018-08-22T20:23:17.605Z,24.90
2018-08-22T20:25:46.031Z,24.70
2018-08-22T20:28:14.613Z,24.60
2018-08-22T20:30:43.221Z,24.60
2018-08-22T20:33:11.923Z,24.60
2018-08-22T20:35:43.111Z,24.40
2018-08-22T20:38:18.244Z,24.40
2018-08-22T20:40:46.977Z,24.30
2018-08-22T20:43:29.819Z,24.20
2018-08-22T20:45:58.287Z,24.10
2018-08-22T20:48:26.762Z,24.10
2018-08-22T20:50:55.210Z,24.10
2018-08-22T20:53:23.629Z,24.20
2018-08-22T20:55:52.084Z,24.10
2018-08-22T20:58:23.504Z,24.10
2018-08-22T21:00:51.987Z,23.90
2018-08-22T21:03:20.454Z,23.80
2018-08-22T21:05:48.895Z,23.80
2018-08-22T21:08:17.390Z,23.70
2018-08-22T21:10:45.952Z,23.70
2018-08-22T21:13:18.622Z,23.60
2018-08-22T21:15:47.116Z,23.60
2018-08-22T21:18:15.640Z,23.60
2018-08-22T21:20:44.072Z,23.60
2018-08-22T21:23:12.623Z,23.60
2018-08-22T21:25:41.881Z,23.60
2018-08-22T21:28:10.397Z,23.60
2018-08-22T21:30:39.808Z,23.50
2018-08-22T21:33:08.283Z,23.40
2018-08-22T21:35:36.751Z,23.20
2018-08-22T21:38:09.476Z,22.90
2018-08-22T21:40:38.009Z,22.80
2018-08-22T21:43:06.497Z,22.80
2018-08-22T21:45:34.973Z,22.80
2018-08-22T21:48:14.178Z,22.80
2018-08-22T21:50:43.336Z,22.80
2018-08-22T21:53:11.771Z,22.70
2018-08-22T21:55:41.238Z,22.70
2018-08-22T21:58:10.219Z,22.70
2018-08-22T22:00:38.875Z,22.60
2018-08-22T22:03:08.043Z,22.60
2018-08-22T22:05:46.371Z,22.50
2018-08-22T22:08:14.777Z,22.50
2018-08-22T22:10:43.202Z,22.50
2018-08-22T22:13:12.135Z,22.40
2018-08-22T22:15:43.658Z,22.40
2018-08-22T22:18:12.097Z,22.40
2018-08-22T22:20:40.875Z,22.40
2018-08-22T22:23:09.353Z,22.40
2018-08-22T22:25:37.814Z,22.40
2018-08-22T22:28:06.284Z,22.30
2018-08-22T22:30:34.772Z,22.30
2018-08-22T22:33:03.214Z,22.20
2018-08-22T22:35:36.664Z,22.10
2018-08-22T22:38:12.105Z,22.10
2018-08-22T22:40:40.709Z,22.10
2018-08-22T22:43:11.915Z,22.10
2018-08-22T22:45:40.424Z,22.00
2018-08-22T22:48:08.825Z,21.90
2018-08-22T22:50:37.255Z,21.90
2018-08-22T22:53:06.104Z,21.90
2018-08-22T22:55:34.636Z,21.90
2018-08-22T22:58:03.516Z,21.90
2018-08-22T23:00:32.042Z,21.90
2018-08-22T23:03:06.381Z,21.90
2018-08-22T23:05:34.840Z,21.90
2018-08-22T23:08:03.541Z,21.80
2018-08-22T23:10:31.915Z,21.70
2018-08-22T23:13:00.354Z,21.60
2018-08-22T23:15:29.909Z,21.50
2018-08-22T23:18:00.752Z,21.30
2018-08-22T23:20:36.142Z,21.40
2018-08-22T23:23:10.137Z,21.30
2018-08-22T23:25:38.779Z,21.30
2018-08-22T23:28:07.189Z,21.20
2018-08-22T23:30:36.893Z,21.20
2018-08-22T23:33:06.170Z,21.10
2018-08-22T23:35:35.580Z,21.10
2018-08-22T23:38:06.028Z,21.10
2018-08-22T23:40:35.413Z,21.10
2018-08-22T23:43:03.935Z,21.00
2018-08-22T23:45:35.875Z,21.00
2018-08-22T23:48:05.207Z,20.80
2018-08-22T23:50:46.190Z,20.80
2018-08-22T23:53:14.563Z,20.80
2018-08-22T23:55:42.933Z,20.60
2018-08-22T23:58:11.355Z,20.50
